sensor_id;sensor_type;location;lat;lon;timestamp;P1;durP1;ratioP1;P2;durP2;ratioP2
53931;SDS011;39844;52.496;13.482;2023-03-21T00:01:28;6.20;;;3.27;;
53931;SDS011;39844;52.496;13.482;2023-03-21T00:03:53;4.60;;;3.37;;
53931;SDS011;39844;52.496;13.482;2023-03-21T00:06:19;4.97;;;3.70;;
53931;SDS011;39844;52.496;13.482;2023-03-21T00:08:44;5.60;;;4.17;;
53931;SDS011;39844;52.496;13.482;2023-03-21T00:11:09;6.10;;;3.30;;
53931;SDS011;39844;52.496;13.482;2023-03-21T00:13:35;3.93;;;3.50;;
53931;SDS011;39844;52.496;13.482;2023-03-21T00:16:11;4.27;;;3.87;;
53931;SDS011;39844;52.496;13.482;2023-03-21T00:18:38;3.40;;;3.10;;
53931;SDS011;39844;52.496;13.482;2023-03-21T00:21:03;5.23;;;3.17;;
53931;SDS011;39844;52.496;13.482;2023-03-21T00:23:30;6.63;;;3.47;;
53931;SDS011;39844;52.496;13.482;2023-03-21T00:25:56;5.70;;;3.03;;
53931;SDS011;39844;52.496;13.482;2023-03-21T00:28:23;7.47;;;3.30;;
53931;SDS011;39844;52.496;13.482;2023-03-21T00:30:58;5.17;;;3.57;;
53931;SDS011;39844;52.496;13.482;2023-03-21T00:33:23;3.17;;;2.97;;
53931;SDS011;39844;52.496;13.482;2023-03-21T00:35:49;4.80;;;3.50;;
53931;SDS011;39844;52.496;13.482;2023-03-21T00:38:15;3.83;;;3.30;;
53931;SDS011;39844;52.496;13.482;2023-03-21T00:40:40;5.33;;;3.87;;
53931;SDS011;39844;52.496;13.482;2023-03-21T00:43:06;4.37;;;3.43;;
53931;SDS011;39844;52.496;13.482;2023-03-21T00:45:31;3.30;;;3.00;;
53931;SDS011;39844;52.496;13.482;2023-03-21T00:47:56;3.40;;;2.70;;
53931;SDS011;39844;52.496;13.482;2023-03-21T00:50:22;8.10;;;3.43;;
53931;SDS011;39844;52.496;13.482;2023-03-21T00:52:48;3.70;;;3.40;;
53931;SDS011;39844;52.496;13.482;2023-03-21T00:55:14;3.47;;;3.00;;
53931;SDS011;39844;52.496;13.482;2023-03-21T00:57:41;4.10;;;3.37;;
53931;SDS011;39844;52.496;13.482;2023-03-21T01:00:07;3.23;;;3.00;;
53931;SDS011;39844;52.496;13.482;2023-03-21T01:02:33;4.13;;;3.17;;
53931;SDS011;39844;52.496;13.482;2023-03-21T01:04:59;4.43;;;2.97;;
53931;SDS011;39844;52.496;13.482;2023-03-21T01:07:24;5.17;;;3.53;;
53931;SDS011;39844;52.496;13.482;2023-03-21T01:09:49;8.00;;;4.03;;
53931;SDS011;39844;52.496;13.482;2023-03-21T01:12:15;3.67;;;3.23;;
53931;SDS011;39844;52.496;13.482;2023-03-21T01:14:40;3.63;;;3.33;;
53931;SDS011;39844;52.496;13.482;2023-03-21T01:17:05;4.63;;;3.83;;
53931;SDS011;39844;52.496;13.482;2023-03-21T01:19:31;3.53;;;3.30;;
53931;SDS011;39844;52.496;13.482;2023-03-21T01:21:56;5.37;;;3.33;;
53931;SDS011;39844;52.496;13.482;2023-03-21T01:24:22;3.63;;;3.33;;
53931;SDS011;39844;52.496;13.482;2023-03-21T01:26:47;4.37;;;3.97;;
53931;SDS011;39844;52.496;13.482;2023-03-21T01:29:12;5.07;;;4.10;;
53931;SDS011;39844;52.496;13.482;2023-03-21T01:31:38;11.07;;;4.00;;
53931;SDS011;39844;52.496;13.482;2023-03-21T01:34:03;4.10;;;3.60;;
53931;SDS011;39844;52.496;13.482;2023-03-21T01:36:29;4.10;;;3.80;;
53931;SDS011;39844;52.496;13.482;2023-03-21T01:38:54;3.67;;;3.37;;
53931;SDS011;39844;52.496;13.482;2023-03-21T01:41:23;4.60;;;4.20;;
53931;SDS011;39844;52.496;13.482;2023-03-21T01:43:53;4.63;;;4.10;;
53931;SDS011;39844;52.496;13.482;2023-03-21T01:49:06;8.63;;;5.80;;
53931;SDS011;39844;52.496;13.482;2023-03-21T01:51:57;7.73;;;5.00;;
53931;SDS011;39844;52.496;13.482;2023-03-21T01:54:27;8.00;;;5.40;;
53931;SDS011;39844;52.496;13.482;2023-03-21T01:56:56;5.87;;;5.13;;
53931;SDS011;39844;52.496;13.482;2023-03-21T01:59:42;7.57;;;6.30;;
53931;SDS011;39844;52.496;13.482;2023-03-21T02:02:14;6.47;;;4.70;;
53931;SDS011;39844;52.496;13.482;2023-03-21T02:04:45;6.83;;;5.77;;
53931;SDS011;39844;52.496;13.482;2023-03-21T02:07:15;9.60;;;7.30;;
53931;SDS011;39844;52.496;13.482;2023-03-21T02:10:00;11.03;;;7.50;;
53931;SDS011;39844;52.496;13.482;2023-03-21T02:12:27;11.97;;;7.60;;
53931;SDS011;39844;52.496;13.482;2023-03-21T02:14:53;14.43;;;8.40;;
53931;SDS011;39844;52.496;13.482;2023-03-21T02:33:35;12.77;;;8.87;;
53931;SDS011;39844;52.496;13.482;2023-03-21T02:38:50;11.17;;;8.53;;
53931;SDS011;39844;52.496;13.482;2023-03-21T02:47:00;13.77;;;9.27;;
53931;SDS011;39844;52.496;13.482;2023-03-21T02:49:33;11.57;;;7.77;;
53931;SDS011;39844;52.496;13.482;2023-03-21T02:52:05;12.50;;;8.37;;
53931;SDS011;39844;52.496;13.482;2023-03-21T02:54:33;14.23;;;8.83;;
53931;SDS011;39844;52.496;13.482;2023-03-21T02:56:59;10.30;;;7.43;;
53931;SDS011;39844;52.496;13.482;2023-03-21T02:59:26;10.67;;;7.60;;
53931;SDS011;39844;52.496;13.482;2023-03-21T03:01:53;10.07;;;7.90;;
53931;SDS011;39844;52.496;13.482;2023-03-21T03:04:21;13.23;;;7.57;;
53931;SDS011;39844;52.496;13.482;2023-03-21T03:06:56;13.23;;;7.93;;
53931;SDS011;39844;52.496;13.482;2023-03-21T03:12:36;9.53;;;6.27;;
53931;SDS011;39844;52.496;13.482;2023-03-21T03:15:49;10.97;;;7.67;;
53931;SDS011;39844;52.496;13.482;2023-03-21T03:20:54;9.83;;;6.77;;
53931;SDS011;39844;52.496;13.482;2023-03-21T03:28:50;15.00;;;8.93;;
53931;SDS011;39844;52.496;13.482;2023-03-21T03:31:26;10.07;;;7.90;;
53931;SDS011;39844;52.496;13.482;2023-03-21T03:33:57;13.20;;;7.50;;
53931;SDS011;39844;52.496;13.482;2023-03-21T03:36:29;9.73;;;7.20;;
53931;SDS011;39844;52.496;13.482;2023-03-21T03:38:57;11.93;;;8.37;;
53931;SDS011;39844;52.496;13.482;2023-03-21T03:41:26;12.03;;;8.20;;
53931;SDS011;39844;52.496;13.482;2023-03-21T03:43:54;11.03;;;8.00;;
53931;SDS011;39844;52.496;13.482;2023-03-21T03:46:31;8.83;;;6.47;;
53931;SDS011;39844;52.496;13.482;2023-03-21T03:49:08;12.73;;;7.87;;
53931;SDS011;39844;52.496;13.482;2023-03-21T03:51:42;10.03;;;7.40;;
53931;SDS011;39844;52.496;13.482;2023-03-21T03:54:15;12.03;;;8.00;;
53931;SDS011;39844;52.496;13.482;2023-03-21T03:56:45;11.97;;;6.80;;
53931;SDS011;39844;52.496;13.482;2023-03-21T03:59:10;19.73;;;9.53;;
53931;SDS011;39844;52.496;13.482;2023-03-21T04:01:36;19.37;;;9.50;;
53931;SDS011;39844;52.496;13.482;2023-03-21T04:04:01;12.47;;;7.80;;
53931;SDS011;39844;52.496;13.482;2023-03-21T04:06:26;14.23;;;8.03;;
53931;SDS011;39844;52.496;13.482;2023-03-21T04:08:52;12.67;;;8.17;;
53931;SDS011;39844;52.496;13.482;2023-03-21T04:11:17;11.93;;;7.83;;
53931;SDS011;39844;52.496;13.482;2023-03-21T04:13:42;12.07;;;7.53;;
53931;SDS011;39844;52.496;13.482;2023-03-21T04:16:08;17.80;;;8.07;;
53931;SDS011;39844;52.496;13.482;2023-03-21T04:18:35;11.93;;;7.60;;
53931;SDS011;39844;52.496;13.482;2023-03-21T04:21:00;10.93;;;7.03;;
53931;SDS011;39844;52.496;13.482;2023-03-21T04:23:30;11.30;;;8.30;;
53931;SDS011;39844;52.496;13.482;2023-03-21T04:25:55;14.93;;;7.13;;
53931;SDS011;39844;52.496;13.482;2023-03-21T04:28:21;9.70;;;6.83;;
53931;SDS011;39844;52.496;13.482;2023-03-21T04:30:47;12.70;;;7.43;;
53931;SDS011;39844;52.496;13.482;2023-03-21T04:33:12;9.67;;;7.43;;
53931;SDS011;39844;52.496;13.482;2023-03-21T04:35:37;10.40;;;7.03;;
53931;SDS011;39844;52.496;13.482;2023-03-21T04:38:03;11.77;;;7.80;;
53931;SDS011;39844;52.496;13.482;2023-03-21T04:40:28;10.13;;;7.53;;
53931;SDS011;39844;52.496;13.482;2023-03-21T04:42:53;9.90;;;7.07;;
53931;SDS011;39844;52.496;13.482;2023-03-21T04:45:19;9.53;;;7.00;;
53931;SDS011;39844;52.496;13.482;2023-03-21T04:47:44;10.20;;;6.83;;
53931;SDS011;39844;52.496;13.482;2023-03-21T04:50:10;13.37;;;7.80;;
53931;SDS011;39844;52.496;13.482;2023-03-21T04:52:36;16.53;;;8.37;;
53931;SDS011;39844;52.496;13.482;2023-03-21T04:55:01;9.53;;;6.70;;
53931;SDS011;39844;52.496;13.482;2023-03-21T04:57:27;11.10;;;7.80;;
53931;SDS011;39844;52.496;13.482;2023-03-21T04:59:52;11.50;;;6.60;;
53931;SDS011;39844;52.496;13.482;2023-03-21T05:02:17;11.67;;;7.53;;
53931;SDS011;39844;52.496;13.482;2023-03-21T05:04:43;10.77;;;7.50;;
53931;SDS011;39844;52.496;13.482;2023-03-21T05:07:08;9.97;;;6.63;;
53931;SDS011;39844;52.496;13.482;2023-03-21T05:09:34;9.33;;;5.47;;
53931;SDS011;39844;52.496;13.482;2023-03-21T05:11:59;8.23;;;5.73;;
53931;SDS011;39844;52.496;13.482;2023-03-21T05:14:25;9.43;;;6.07;;
53931;SDS011;39844;52.496;13.482;2023-03-21T05:16:51;10.57;;;6.27;;
53931;SDS011;39844;52.496;13.482;2023-03-21T05:19:16;8.47;;;5.57;;
53931;SDS011;39844;52.496;13.482;2023-03-21T05:21:41;7.40;;;5.80;;
53931;SDS011;39844;52.496;13.482;2023-03-21T05:24:08;7.73;;;6.20;;
53931;SDS011;39844;52.496;13.482;2023-03-21T05:26:33;7.20;;;5.37;;
53931;SDS011;39844;52.496;13.482;2023-03-21T05:28:59;8.33;;;5.53;;
53931;SDS011;39844;52.496;13.482;2023-03-21T05:31:24;8.03;;;5.97;;
53931;SDS011;39844;52.496;13.482;2023-03-21T05:33:49;7.70;;;6.13;;
53931;SDS011;39844;52.496;13.482;2023-03-21T05:36:15;8.77;;;6.77;;
53931;SDS011;39844;52.496;13.482;2023-03-21T05:38:40;8.30;;;5.87;;
53931;SDS011;39844;52.496;13.482;2023-03-21T05:41:05;9.33;;;5.83;;
53931;SDS011;39844;52.496;13.482;2023-03-21T05:43:31;9.20;;;5.93;;
53931;SDS011;39844;52.496;13.482;2023-03-21T05:45:56;7.40;;;5.90;;
53931;SDS011;39844;52.496;13.482;2023-03-21T05:48:21;8.93;;;5.97;;
53931;SDS011;39844;52.496;13.482;2023-03-21T05:50:47;9.00;;;5.63;;
53931;SDS011;39844;52.496;13.482;2023-03-21T05:53:12;10.03;;;6.40;;
53931;SDS011;39844;52.496;13.482;2023-03-21T05:55:37;8.07;;;6.17;;
53931;SDS011;39844;52.496;13.482;2023-03-21T05:58:03;11.80;;;5.97;;
53931;SDS011;39844;52.496;13.482;2023-03-21T06:00:28;8.90;;;5.70;;
53931;SDS011;39844;52.496;13.482;2023-03-21T06:02:53;6.30;;;4.67;;
53931;SDS011;39844;52.496;13.482;2023-03-21T06:05:19;9.03;;;5.60;;
53931;SDS011;39844;52.496;13.482;2023-03-21T06:07:44;9.03;;;6.27;;
53931;SDS011;39844;52.496;13.482;2023-03-21T06:10:10;8.23;;;5.80;;
53931;SDS011;39844;52.496;13.482;2023-03-21T06:12:35;9.80;;;5.60;;
53931;SDS011;39844;52.496;13.482;2023-03-21T06:15:01;10.13;;;6.07;;
53931;SDS011;39844;52.496;13.482;2023-03-21T06:17:26;9.70;;;6.00;;
53931;SDS011;39844;52.496;13.482;2023-03-21T06:19:52;12.43;;;6.00;;
53931;SDS011;39844;52.496;13.482;2023-03-21T06:22:17;10.47;;;6.47;;
53931;SDS011;39844;52.496;13.482;2023-03-21T06:24:42;10.00;;;5.97;;
53931;SDS011;39844;52.496;13.482;2023-03-21T06:27:08;6.53;;;5.03;;
53931;SDS011;39844;52.496;13.482;2023-03-21T06:29:33;9.03;;;6.10;;
53931;SDS011;39844;52.496;13.482;2023-03-21T06:31:58;8.10;;;5.77;;
53931;SDS011;39844;52.496;13.482;2023-03-21T06:34:24;10.23;;;5.87;;
53931;SDS011;39844;52.496;13.482;2023-03-21T06:36:49;9.13;;;5.87;;
53931;SDS011;39844;52.496;13.482;2023-03-21T06:39:14;10.37;;;6.33;;
53931;SDS011;39844;52.496;13.482;2023-03-21T06:41:39;7.53;;;5.23;;
53931;SDS011;39844;52.496;13.482;2023-03-21T06:44:05;10.37;;;6.27;;
53931;SDS011;39844;52.496;13.482;2023-03-21T06:46:30;9.20;;;6.17;;
53931;SDS011;39844;52.496;13.482;2023-03-21T06:48:55;9.30;;;6.13;;
53931;SDS011;39844;52.496;13.482;2023-03-21T06:51:21;7.43;;;5.70;;
53931;SDS011;39844;52.496;13.482;2023-03-21T06:53:46;9.67;;;5.70;;
53931;SDS011;39844;52.496;13.482;2023-03-21T06:56:13;8.67;;;5.63;;
53931;SDS011;39844;52.496;13.482;2023-03-21T06:58:39;8.10;;;5.53;;
53931;SDS011;39844;52.496;13.482;2023-03-21T07:01:05;8.17;;;5.47;;
53931;SDS011;39844;52.496;13.482;2023-03-21T07:03:31;8.73;;;6.03;;
53931;SDS011;39844;52.496;13.482;2023-03-21T07:05:56;12.47;;;7.00;;
53931;SDS011;39844;52.496;13.482;2023-03-21T07:08:22;11.67;;;7.00;;
53931;SDS011;39844;52.496;13.482;2023-03-21T07:10:47;11.90;;;5.67;;
53931;SDS011;39844;52.496;13.482;2023-03-21T07:13:13;10.67;;;6.17;;
53931;SDS011;39844;52.496;13.482;2023-03-21T07:15:39;9.40;;;6.03;;
53931;SDS011;39844;52.496;13.482;2023-03-21T07:18:04;10.37;;;5.63;;
53931;SDS011;39844;52.496;13.482;2023-03-21T07:20:30;10.30;;;6.03;;
53931;SDS011;39844;52.496;13.482;2023-03-21T07:22:56;9.90;;;6.03;;
53931;SDS011;39844;52.496;13.482;2023-03-21T07:25:22;10.27;;;6.13;;
53931;SDS011;39844;52.496;13.482;2023-03-21T07:27:48;9.83;;;6.07;;
53931;SDS011;39844;52.496;13.482;2023-03-21T07:30:14;13.20;;;7.30;;
53931;SDS011;39844;52.496;13.482;2023-03-21T07:32:40;12.83;;;7.33;;
53931;SDS011;39844;52.496;13.482;2023-03-21T07:35:06;10.57;;;6.53;;
53931;SDS011;39844;52.496;13.482;2023-03-21T07:37:34;9.77;;;6.13;;
53931;SDS011;39844;52.496;13.482;2023-03-21T07:39:59;8.67;;;6.13;;
53931;SDS011;39844;52.496;13.482;2023-03-21T07:42:24;8.13;;;6.13;;
53931;SDS011;39844;52.496;13.482;2023-03-21T07:44:50;10.27;;;6.57;;
53931;SDS011;39844;52.496;13.482;2023-03-21T07:47:15;11.20;;;6.97;;
53931;SDS011;39844;52.496;13.482;2023-03-21T07:49:40;10.90;;;6.43;;
53931;SDS011;39844;52.496;13.482;2023-03-21T07:52:06;8.77;;;6.57;;
53931;SDS011;39844;52.496;13.482;2023-03-21T07:54:31;12.07;;;7.07;;
53931;SDS011;39844;52.496;13.482;2023-03-21T07:56:56;11.77;;;7.17;;
53931;SDS011;39844;52.496;13.482;2023-03-21T07:59:22;12.07;;;7.20;;
53931;SDS011;39844;52.496;13.482;2023-03-21T08:01:47;11.13;;;6.93;;
53931;SDS011;39844;52.496;13.482;2023-03-21T08:04:12;13.40;;;6.97;;
53931;SDS011;39844;52.496;13.482;2023-03-21T08:06:38;8.73;;;6.47;;
53931;SDS011;39844;52.496;13.482;2023-03-21T08:09:03;10.67;;;7.23;;
53931;SDS011;39844;52.496;13.482;2023-03-21T08:11:29;12.03;;;7.27;;
53931;SDS011;39844;52.496;13.482;2023-03-21T08:13:54;12.97;;;6.37;;
53931;SDS011;39844;52.496;13.482;2023-03-21T08:16:19;14.37;;;6.87;;
53931;SDS011;39844;52.496;13.482;2023-03-21T08:18:47;8.17;;;6.43;;
53931;SDS011;39844;52.496;13.482;2023-03-21T08:21:12;9.53;;;6.47;;
53931;SDS011;39844;52.496;13.482;2023-03-21T08:23:38;9.63;;;5.47;;
53931;SDS011;39844;52.496;13.482;2023-03-21T08:26:03;8.87;;;5.90;;
53931;SDS011;39844;52.496;13.482;2023-03-21T08:28:28;8.67;;;5.93;;
53931;SDS011;39844;52.496;13.482;2023-03-21T08:30:54;9.57;;;5.97;;
53931;SDS011;39844;52.496;13.482;2023-03-21T08:33:19;8.70;;;6.10;;
53931;SDS011;39844;52.496;13.482;2023-03-21T08:35:45;11.13;;;6.73;;
53931;SDS011;39844;52.496;13.482;2023-03-21T08:38:11;8.53;;;5.93;;
53931;SDS011;39844;52.496;13.482;2023-03-21T08:40:37;10.73;;;6.20;;
53931;SDS011;39844;52.496;13.482;2023-03-21T08:43:02;8.40;;;6.57;;
53931;SDS011;39844;52.496;13.482;2023-03-21T08:45:28;10.47;;;6.73;;
53931;SDS011;39844;52.496;13.482;2023-03-21T08:47:53;11.33;;;6.67;;
53931;SDS011;39844;52.496;13.482;2023-03-21T08:50:20;7.73;;;5.70;;
53931;SDS011;39844;52.496;13.482;2023-03-21T08:52:47;10.73;;;6.20;;
53931;SDS011;39844;52.496;13.482;2023-03-21T08:55:13;14.23;;;7.20;;
53931;SDS011;39844;52.496;13.482;2023-03-21T08:57:39;9.47;;;6.60;;
53931;SDS011;39844;52.496;13.482;2023-03-21T09:00:05;11.10;;;6.03;;
53931;SDS011;39844;52.496;13.482;2023-03-21T09:02:32;13.57;;;6.73;;
53931;SDS011;39844;52.496;13.482;2023-03-21T09:04:57;10.20;;;6.43;;
53931;SDS011;39844;52.496;13.482;2023-03-21T09:07:23;10.00;;;6.43;;
53931;SDS011;39844;52.496;13.482;2023-03-21T09:09:48;8.37;;;5.77;;
53931;SDS011;39844;52.496;13.482;2023-03-21T09:12:14;7.53;;;5.90;;
53931;SDS011;39844;52.496;13.482;2023-03-21T09:14:39;10.10;;;5.80;;
53931;SDS011;39844;52.496;13.482;2023-03-21T09:17:04;10.07;;;5.47;;
53931;SDS011;39844;52.496;13.482;2023-03-21T09:19:30;12.57;;;7.47;;
53931;SDS011;39844;52.496;13.482;2023-03-21T09:21:55;8.27;;;5.77;;
53931;SDS011;39844;52.496;13.482;2023-03-21T09:24:20;9.90;;;5.53;;
53931;SDS011;39844;52.496;13.482;2023-03-21T09:26:45;10.70;;;6.03;;
53931;SDS011;39844;52.496;13.482;2023-03-21T09:29:11;8.97;;;6.00;;
53931;SDS011;39844;52.496;13.482;2023-03-21T09:31:36;9.67;;;6.13;;
53931;SDS011;39844;52.496;13.482;2023-03-21T09:34:02;8.73;;;5.27;;
53931;SDS011;39844;52.496;13.482;2023-03-21T09:36:27;7.40;;;4.97;;
53931;SDS011;39844;52.496;13.482;2023-03-21T09:38:53;7.93;;;6.10;;
53931;SDS011;39844;52.496;13.482;2023-03-21T09:46:35;9.80;;;5.87;;
53931;SDS011;39844;52.496;13.482;2023-03-21T09:49:15;9.40;;;5.80;;
53931;SDS011;39844;52.496;13.482;2023-03-21T09:51:44;8.53;;;6.30;;
53931;SDS011;39844;52.496;13.482;2023-03-21T09:54:12;11.57;;;6.87;;
53931;SDS011;39844;52.496;13.482;2023-03-21T09:56:48;8.47;;;6.13;;
53931;SDS011;39844;52.496;13.482;2023-03-21T09:59:27;11.40;;;7.47;;
53931;SDS011;39844;52.496;13.482;2023-03-21T10:01:58;8.93;;;6.13;;
53931;SDS011;39844;52.496;13.482;2023-03-21T10:04:23;10.20;;;6.50;;
53931;SDS011;39844;52.496;13.482;2023-03-21T10:06:55;10.03;;;6.97;;
53931;SDS011;39844;52.496;13.482;2023-03-21T10:09:23;9.37;;;6.23;;
53931;SDS011;39844;52.496;13.482;2023-03-21T10:11:53;12.33;;;6.73;;
53931;SDS011;39844;52.496;13.482;2023-03-21T10:14:34;11.20;;;7.53;;
53931;SDS011;39844;52.496;13.482;2023-03-21T10:17:17;12.93;;;7.70;;
53931;SDS011;39844;52.496;13.482;2023-03-21T10:19:55;10.57;;;6.93;;
53931;SDS011;39844;52.496;13.482;2023-03-21T10:22:31;10.93;;;6.73;;
53931;SDS011;39844;52.496;13.482;2023-03-21T10:24:56;11.53;;;6.97;;
53931;SDS011;39844;52.496;13.482;2023-03-21T10:27:21;10.43;;;6.73;;
53931;SDS011;39844;52.496;13.482;2023-03-21T10:29:47;11.73;;;6.80;;
53931;SDS011;39844;52.496;13.482;2023-03-21T10:32:14;13.20;;;7.60;;
53931;SDS011;39844;52.496;13.482;2023-03-21T10:34:42;10.37;;;7.07;;
53931;SDS011;39844;52.496;13.482;2023-03-21T10:37:11;16.37;;;8.03;;
53931;SDS011;39844;52.496;13.482;2023-03-21T10:39:38;8.87;;;7.33;;
53931;SDS011;39844;52.496;13.482;2023-03-21T10:42:10;12.60;;;7.57;;
53931;SDS011;39844;52.496;13.482;2023-03-21T10:44:45;12.53;;;6.73;;
53931;SDS011;39844;52.496;13.482;2023-03-21T10:47:19;10.17;;;7.13;;
53931;SDS011;39844;52.496;13.482;2023-03-21T10:49:46;11.73;;;7.27;;
53931;SDS011;39844;52.496;13.482;2023-03-21T10:52:12;9.63;;;6.80;;
53931;SDS011;39844;52.496;13.482;2023-03-21T10:54:42;10.20;;;6.80;;
53931;SDS011;39844;52.496;13.482;2023-03-21T10:57:09;10.10;;;6.63;;
53931;SDS011;39844;52.496;13.482;2023-03-21T11:02:13;9.07;;;6.57;;
53931;SDS011;39844;52.496;13.482;2023-03-21T11:04:43;12.43;;;6.90;;
53931;SDS011;39844;52.496;13.482;2023-03-21T11:07:10;9.50;;;6.40;;
53931;SDS011;39844;52.496;13.482;2023-03-21T11:09:48;12.37;;;6.67;;
53931;SDS011;39844;52.496;13.482;2023-03-21T11:12:27;9.50;;;6.13;;
53931;SDS011;39844;52.496;13.482;2023-03-21T11:17:57;8.80;;;6.07;;
53931;SDS011;39844;52.496;13.482;2023-03-21T11:20:23;9.43;;;5.77;;
53931;SDS011;39844;52.496;13.482;2023-03-21T11:22:52;9.93;;;6.10;;
53931;SDS011;39844;52.496;13.482;2023-03-21T11:25:41;11.63;;;6.30;;
53931;SDS011;39844;52.496;13.482;2023-03-21T11:28:13;10.03;;;6.10;;
53931;SDS011;39844;52.496;13.482;2023-03-21T11:31:14;7.10;;;5.67;;
53931;SDS011;39844;52.496;13.482;2023-03-21T11:33:34;8.90;;;5.20;;
53931;SDS011;39844;52.496;13.482;2023-03-21T11:36:06;10.50;;;6.97;;
53931;SDS011;39844;52.496;13.482;2023-03-21T11:38:47;8.13;;;5.73;;
53931;SDS011;39844;52.496;13.482;2023-03-21T11:41:21;8.77;;;5.77;;
53931;SDS011;39844;52.496;13.482;2023-03-21T11:43:51;8.13;;;5.20;;
53931;SDS011;39844;52.496;13.482;2023-03-21T11:46:21;7.67;;;5.67;;
53931;SDS011;39844;52.496;13.482;2023-03-21T11:48:48;7.83;;;5.57;;
53931;SDS011;39844;52.496;13.482;2023-03-21T11:53:46;7.97;;;5.60;;
53931;SDS011;39844;52.496;13.482;2023-03-21T12:01:52;6.80;;;4.83;;
53931;SDS011;39844;52.496;13.482;2023-03-21T12:09:50;7.37;;;5.60;;
53931;SDS011;39844;52.496;13.482;2023-03-21T12:12:24;8.27;;;5.40;;
53931;SDS011;39844;52.496;13.482;2023-03-21T12:23:15;8.87;;;5.43;;
53931;SDS011;39844;52.496;13.482;2023-03-21T12:34:21;7.30;;;4.93;;
53931;SDS011;39844;52.496;13.482;2023-03-21T12:39:33;8.17;;;5.20;;
53931;SDS011;39844;52.496;13.482;2023-03-21T12:44:40;8.87;;;5.43;;
53931;SDS011;39844;52.496;13.482;2023-03-21T12:47:12;7.60;;;5.10;;
53931;SDS011;39844;52.496;13.482;2023-03-21T12:49:42;6.30;;;5.03;;
53931;SDS011;39844;52.496;13.482;2023-03-21T12:52:25;6.80;;;4.73;;
53931;SDS011;39844;52.496;13.482;2023-03-21T12:55:04;9.27;;;5.47;;
53931;SDS011;39844;52.496;13.482;2023-03-21T12:58:01;6.27;;;5.40;;
53931;SDS011;39844;52.496;13.482;2023-03-21T13:03:03;6.67;;;5.27;;
53931;SDS011;39844;52.496;13.482;2023-03-21T13:08:32;5.87;;;5.27;;
53931;SDS011;39844;52.496;13.482;2023-03-21T13:11:02;7.23;;;5.20;;
53931;SDS011;39844;52.496;13.482;2023-03-21T13:18:58;7.20;;;5.17;;
53931;SDS011;39844;52.496;13.482;2023-03-21T13:26:56;6.03;;;4.63;;
53931;SDS011;39844;52.496;13.482;2023-03-21T13:29:26;6.70;;;5.17;;
53931;SDS011;39844;52.496;13.482;2023-03-21T13:31:53;6.33;;;4.30;;
53931;SDS011;39844;52.496;13.482;2023-03-21T13:34:23;5.07;;;4.33;;
53931;SDS011;39844;52.496;13.482;2023-03-21T13:36:49;7.97;;;4.37;;
53931;SDS011;39844;52.496;13.482;2023-03-21T13:39:20;5.93;;;4.37;;
53931;SDS011;39844;52.496;13.482;2023-03-21T13:41:51;6.07;;;4.17;;
53931;SDS011;39844;52.496;13.482;2023-03-21T13:49:29;5.50;;;3.93;;
53931;SDS011;39844;52.496;13.482;2023-03-21T13:51:58;6.87;;;4.30;;
53931;SDS011;39844;52.496;13.482;2023-03-21T13:54:28;6.83;;;4.03;;
53931;SDS011;39844;52.496;13.482;2023-03-21T13:57:20;6.20;;;4.33;;
53931;SDS011;39844;52.496;13.482;2023-03-21T14:00:12;4.93;;;4.10;;
53931;SDS011;39844;52.496;13.482;2023-03-21T14:05:32;5.57;;;4.30;;
53931;SDS011;39844;52.496;13.482;2023-03-21T14:08:08;6.63;;;5.07;;
53931;SDS011;39844;52.496;13.482;2023-03-21T14:10:41;5.53;;;4.47;;
53931;SDS011;39844;52.496;13.482;2023-03-21T14:13:10;7.03;;;4.53;;
53931;SDS011;39844;52.496;13.482;2023-03-21T14:15:41;5.37;;;4.23;;
53931;SDS011;39844;52.496;13.482;2023-03-21T14:18:16;5.10;;;4.60;;
53931;SDS011;39844;52.496;13.482;2023-03-21T14:20:44;6.00;;;4.50;;
53931;SDS011;39844;52.496;13.482;2023-03-21T14:23:13;5.87;;;4.07;;
53931;SDS011;39844;52.496;13.482;2023-03-21T14:25:40;4.03;;;3.60;;
53931;SDS011;39844;52.496;13.482;2023-03-21T14:28:07;3.83;;;3.50;;
53931;SDS011;39844;52.496;13.482;2023-03-21T14:30:39;5.40;;;3.70;;
53931;SDS011;39844;52.496;13.482;2023-03-21T14:35:56;5.20;;;3.37;;
53931;SDS011;39844;52.496;13.482;2023-03-21T14:38:24;5.33;;;3.50;;
53931;SDS011;39844;52.496;13.482;2023-03-21T14:40:54;5.70;;;3.80;;
53931;SDS011;39844;52.496;13.482;2023-03-21T14:43:21;3.60;;;3.23;;
53931;SDS011;39844;52.496;13.482;2023-03-21T14:45:48;7.60;;;4.23;;
53931;SDS011;39844;52.496;13.482;2023-03-21T14:48:15;4.50;;;3.57;;
53931;SDS011;39844;52.496;13.482;2023-03-21T14:50:49;4.00;;;3.43;;
53931;SDS011;39844;52.496;13.482;2023-03-21T14:53:19;5.07;;;3.77;;
53931;SDS011;39844;52.496;13.482;2023-03-21T14:55:49;5.00;;;3.63;;
53931;SDS011;39844;52.496;13.482;2023-03-21T14:58:20;4.07;;;3.10;;
53931;SDS011;39844;52.496;13.482;2023-03-21T15:00:48;5.23;;;3.57;;
53931;SDS011;39844;52.496;13.482;2023-03-21T15:03:15;3.77;;;3.00;;
53931;SDS011;39844;52.496;13.482;2023-03-21T15:05:42;3.43;;;3.13;;
53931;SDS011;39844;52.496;13.482;2023-03-21T15:10:36;6.07;;;3.50;;
53931;SDS011;39844;52.496;13.482;2023-03-21T15:13:11;3.10;;;2.80;;
53931;SDS011;39844;52.496;13.482;2023-03-21T15:15:37;3.67;;;2.83;;
53931;SDS011;39844;52.496;13.482;2023-03-21T15:18:05;3.87;;;3.37;;
53931;SDS011;39844;52.496;13.482;2023-03-21T15:20:32;2.43;;;2.23;;
53931;SDS011;39844;52.496;13.482;2023-03-21T15:23:02;4.07;;;3.10;;
53931;SDS011;39844;52.496;13.482;2023-03-21T15:25:33;3.90;;;2.77;;
53931;SDS011;39844;52.496;13.482;2023-03-21T15:28:00;2.60;;;2.40;;
53931;SDS011;39844;52.496;13.482;2023-03-21T15:30:26;3.37;;;2.73;;
53931;SDS011;39844;52.496;13.482;2023-03-21T15:32:54;3.27;;;3.03;;
53931;SDS011;39844;52.496;13.482;2023-03-21T15:35:24;3.03;;;2.80;;
53931;SDS011;39844;52.496;13.482;2023-03-21T15:37:58;4.90;;;3.00;;
53931;SDS011;39844;52.496;13.482;2023-03-21T15:40:27;6.60;;;3.40;;
53931;SDS011;39844;52.496;13.482;2023-03-21T15:43:13;5.63;;;3.40;;
53931;SDS011;39844;52.496;13.482;2023-03-21T15:45:50;3.73;;;3.00;;
53931;SDS011;39844;52.496;13.482;2023-03-21T15:48:21;2.97;;;2.73;;
53931;SDS011;39844;52.496;13.482;2023-03-21T15:53:21;3.23;;;2.93;;
53931;SDS011;39844;52.496;13.482;2023-03-21T15:56:00;5.17;;;3.03;;
53931;SDS011;39844;52.496;13.482;2023-03-21T15:58:31;3.40;;;3.10;;
53931;SDS011;39844;52.496;13.482;2023-03-21T16:01:00;3.20;;;2.87;;
53931;SDS011;39844;52.496;13.482;2023-03-21T16:03:30;4.90;;;3.10;;
53931;SDS011;39844;52.496;13.482;2023-03-21T16:08:41;2.93;;;2.70;;
53931;SDS011;39844;52.496;13.482;2023-03-21T16:13:49;2.73;;;2.40;;
53931;SDS011;39844;52.496;13.482;2023-03-21T16:16:25;3.03;;;2.80;;
53931;SDS011;39844;52.496;13.482;2023-03-21T16:18:52;9.83;;;3.10;;
53931;SDS011;39844;52.496;13.482;2023-03-21T16:21:19;4.70;;;3.23;;
53931;SDS011;39844;52.496;13.482;2023-03-21T16:23:47;2.70;;;2.50;;
53931;SDS011;39844;52.496;13.482;2023-03-21T16:26:13;3.87;;;3.23;;
53931;SDS011;39844;52.496;13.482;2023-03-21T16:28:44;3.53;;;3.23;;
53931;SDS011;39844;52.496;13.482;2023-03-21T16:31:11;3.57;;;2.97;;
53931;SDS011;39844;52.496;13.482;2023-03-21T16:33:42;3.30;;;3.00;;
53931;SDS011;39844;52.496;13.482;2023-03-21T16:36:11;3.90;;;3.23;;
53931;SDS011;39844;52.496;13.482;2023-03-21T16:38:40;4.90;;;3.20;;
53931;SDS011;39844;52.496;13.482;2023-03-21T16:41:12;2.70;;;2.50;;